Alligator Point, Florida
Current Conditions -  °F | °C
As of 9:53 PM on Thursday 27 Nov 2014 (Local Time) from KTLH Reporting Station
Clear Clear  
Wind Chill:   Ceiling: Unl
Heat Index:   Visibility: 10mi
Dew Point:   Wind: 6mph
Humidity: 61%   Direction: 340°NNW
Pressure: 30.38"   Gusts: NA
Location:  30.0223°N, 84.3911°W
Report Text: KTLH 280253Z 34005KT 10SM CLR 08/01 A3038 RMK AO2 SLP286 T00780006 51019 $
Loading
Personal Weather Stations






























Interactive Weather Map New forecast layout! Learn more

10-Day Weather Forecast

Advertisements
Track Severe Weather on mobile